createdAt,value
2018-01-14T00:03:47.200Z,35.57
2018-01-14T00:13:48.758Z,35.13
2018-01-14T00:23:51.138Z,36.60
2018-01-14T00:33:52.738Z,44.97
2018-01-14T00:43:54.322Z,34.03
2018-01-14T00:53:55.931Z,34.40
2018-01-14T01:03:57.506Z,27.20
2018-01-14T01:13:59.116Z,37.03
2018-01-14T01:24:00.683Z,34.67
2018-01-14T01:34:02.946Z,33.00
2018-01-14T01:44:04.628Z,29.00
2018-01-14T01:54:06.154Z,33.23
2018-01-14T02:04:07.787Z,36.17
2018-01-14T02:14:09.401Z,37.00
2018-01-14T02:24:11.673Z,33.20
2018-01-14T02:34:13.274Z,29.20
2018-01-14T02:44:14.876Z,48.07
2018-01-14T02:54:16.408Z,33.27
2018-01-14T03:04:17.886Z,39.27
2018-01-14T03:14:19.472Z,40.23
2018-01-14T03:24:21.896Z,49.13
2018-01-14T03:34:23.437Z,43.20
2018-01-14T03:44:25.637Z,52.80
2018-01-14T03:54:27.244Z,47.63
2018-01-14T04:04:28.779Z,49.10
2018-01-14T04:14:30.291Z,44.53
2018-01-14T04:24:31.853Z,46.93
2018-01-14T04:34:34.197Z,50.00
2018-01-14T04:44:35.729Z,48.93
2018-01-14T04:54:37.294Z,49.07
2018-01-14T05:04:38.933Z,48.90
2018-01-14T05:14:40.563Z,53.13
2018-01-14T05:24:42.090Z,58.20
2018-01-14T05:34:43.696Z,49.13
2018-01-14T05:44:45.220Z,59.20
2018-01-14T05:54:46.745Z,58.67
2018-01-14T06:04:48.388Z,52.93
2018-01-14T06:14:50.216Z,50.73
2018-01-14T06:24:51.872Z,54.37
2018-01-14T06:34:53.404Z,58.37
2018-01-14T06:44:55.024Z,43.53
2018-01-14T06:54:56.585Z,54.40
2018-01-14T07:04:58.856Z,57.40
2018-01-14T07:15:00.369Z,45.73
2018-01-14T07:25:01.987Z,46.17
2018-01-14T07:35:03.483Z,50.53
2018-01-14T07:45:05.050Z,52.30
2018-01-14T07:55:06.716Z,47.60
2018-01-14T08:05:09.032Z,49.43
2018-01-14T08:15:11.336Z,40.77
2018-01-14T08:25:13.750Z,43.77
2018-01-14T08:35:15.267Z,43.53
2018-01-14T08:45:17.665Z,34.97
2018-01-14T08:55:19.229Z,39.30
2018-01-14T09:05:20.748Z,35.00
2018-01-14T09:15:22.373Z,40.77
2018-01-14T09:25:24.695Z,44.73
2018-01-14T09:35:27.100Z,31.20
2018-01-14T09:45:28.600Z,36.13
2018-01-14T09:55:30.093Z,32.63
2018-01-14T10:05:31.688Z,29.77
2018-01-14T10:15:33.243Z,36.97
2018-01-14T10:25:34.788Z,28.90
2018-01-14T10:35:36.413Z,30.13
2018-01-14T10:45:38.826Z,30.67
2018-01-14T10:55:40.377Z,30.50
2018-01-14T11:05:41.878Z,30.00
2018-01-14T11:15:43.479Z,27.90
2018-01-14T11:25:45.017Z,30.40
2018-01-14T11:35:46.629Z,27.83
2018-01-14T11:45:48.329Z,26.40
2018-01-14T11:55:49.781Z,33.40
2018-01-14T12:05:51.335Z,29.40
2018-01-14T12:15:53.583Z,20.97
2018-01-14T12:25:55.104Z,22.60
2018-01-14T12:35:56.613Z,26.90
2018-01-14T12:45:58.082Z,25.10
2018-01-14T12:55:59.529Z,29.43
2018-01-14T13:06:01.037Z,27.50
2018-01-14T13:16:02.626Z,31.20
2018-01-14T13:26:04.116Z,27.73
2018-01-14T13:36:05.603Z,23.93
2018-01-14T13:46:07.672Z,25.50
2018-01-14T13:56:09.257Z,26.13
2018-01-14T14:06:11.535Z,25.20
2018-01-14T14:16:13.091Z,27.63
2018-01-14T14:26:15.319Z,26.77
2018-01-14T14:36:16.974Z,24.13
2018-01-14T14:46:18.503Z,22.37
2018-01-14T14:56:20.007Z,26.00
2018-01-14T15:06:21.536Z,26.17
2018-01-14T15:16:23.052Z,24.70
2018-01-14T15:26:24.621Z,28.87
2018-01-14T15:36:26.188Z,22.20
2018-01-14T15:46:28.490Z,21.80
2018-01-14T15:56:30.035Z,25.50
2018-01-14T16:06:31.660Z,31.37
2018-01-14T16:16:33.316Z,27.87
2018-01-14T16:26:35.636Z,32.67
2018-01-14T16:36:37.909Z,34.47
2018-01-14T16:46:39.585Z,36.67
2018-01-14T16:56:41.209Z,38.33
2018-01-14T17:06:43.717Z,37.40
2018-01-14T17:16:45.285Z,34.13
2018-01-14T17:26:47.617Z,29.80
2018-01-14T17:36:49.252Z,34.03
2018-01-14T17:46:50.899Z,32.13
2018-01-14T17:56:53.321Z,27.13
2018-01-14T18:06:55.672Z,35.87
2018-01-14T18:16:59.330Z,36.50
2018-01-14T18:27:00.854Z,39.77
2018-01-14T18:37:02.409Z,45.80
2018-01-14T18:47:04.024Z,40.30
2018-01-14T18:57:05.612Z,37.10
2018-01-14T19:07:07.347Z,35.77
2018-01-14T19:17:08.966Z,38.00
2018-01-14T19:27:10.559Z,46.03
2018-01-14T19:37:12.083Z,37.70
2018-01-14T19:47:14.884Z,38.93
2018-01-14T19:57:17.376Z,39.17
2018-01-14T20:07:19.036Z,40.67
2018-01-14T20:17:21.371Z,35.50
2018-01-14T20:27:23.683Z,38.50
2018-01-14T20:37:25.952Z,41.17
2018-01-14T20:47:27.458Z,40.00
2018-01-14T20:57:29.126Z,37.43
2018-01-14T21:07:30.813Z,36.03
2018-01-14T21:17:33.262Z,35.90
2018-01-14T21:27:34.814Z,37.67
2018-01-14T21:37:36.398Z,39.47
2018-01-14T21:47:38.065Z,36.80
2018-01-14T21:57:39.605Z,38.23
2018-01-14T22:07:41.161Z,39.20
2018-01-14T22:17:42.817Z,38.77
2018-01-14T22:27:44.357Z,35.93
2018-01-14T22:37:45.928Z,48.90
2018-01-14T22:47:48.295Z,44.63
2018-01-14T22:57:49.838Z,39.50
2018-01-14T23:07:51.465Z,41.77
2018-01-14T23:17:53.702Z,37.60
2018-01-14T23:27:55.232Z,37.63
2018-01-14T23:37:56.760Z,36.33
2018-01-14T23:47:58.291Z,33.90
2018-01-14T23:57:59.871Z,44.70
